sensor_id;sensor_type;location;lat;lon;timestamp;temperature;humidity
14769;DHT22;7476;49.404;11.152;2022-10-16T00:01:15;15.50;99.90
14769;DHT22;7476;49.404;11.152;2022-10-16T00:03:43;15.40;99.90
14769;DHT22;7476;49.404;11.152;2022-10-16T00:06:10;15.50;99.90
14769;DHT22;7476;49.404;11.152;2022-10-16T00:08:38;15.50;99.90
14769;DHT22;7476;49.404;11.152;2022-10-16T00:11:09;15.40;99.90
14769;DHT22;7476;49.404;11.152;2022-10-16T00:13:38;15.30;99.90
14769;DHT22;7476;49.404;11.152;2022-10-16T00:16:06;15.30;99.90
14769;DHT22;7476;49.404;11.152;2022-10-16T00:18:33;15.30;99.90
14769;DHT22;7476;49.404;11.152;2022-10-16T00:21:05;15.20;99.90
14769;DHT22;7476;49.404;11.152;2022-10-16T00:23:33;15.10;99.90
14769;DHT22;7476;49.404;11.152;2022-10-16T00:26:02;15.10;99.90
14769;DHT22;7476;49.404;11.152;2022-10-16T00:28:32;15.10;99.90
14769;DHT22;7476;49.404;11.152;2022-10-16T00:30:59;15.10;99.90
14769;DHT22;7476;49.404;11.152;2022-10-16T00:33:28;15.10;99.90
14769;DHT22;7476;49.404;11.152;2022-10-16T00:35:57;15.10;99.90
14769;DHT22;7476;49.404;11.152;2022-10-16T00:38:24;15.10;99.90
14769;DHT22;7476;49.404;11.152;2022-10-16T00:40:50;15.10;99.90
14769;DHT22;7476;49.404;11.152;2022-10-16T00:46:15;15.10;99.90
14769;DHT22;7476;49.404;11.152;2022-10-16T00:48:46;15.10;99.90
14769;DHT22;7476;49.404;11.152;2022-10-16T00:51:15;15.10;99.90
14769;DHT22;7476;49.404;11.152;2022-10-16T00:53:43;15.10;99.90
14769;DHT22;7476;49.404;11.152;2022-10-16T00:56:11;15.10;99.90
14769;DHT22;7476;49.404;11.152;2022-10-16T00:58:37;15.00;99.90
14769;DHT22;7476;49.404;11.152;2022-10-16T01:01:04;15.00;99.90
14769;DHT22;7476;49.404;11.152;2022-10-16T01:03:35;14.90;99.90
14769;DHT22;7476;49.404;11.152;2022-10-16T01:06:16;14.90;99.90
14769;DHT22;7476;49.404;11.152;2022-10-16T01:08:53;14.80;99.90
14769;DHT22;7476;49.404;11.152;2022-10-16T01:11:27;14.80;99.90
14769;DHT22;7476;49.404;11.152;2022-10-16T01:14:01;14.80;99.90
14769;DHT22;7476;49.404;11.152;2022-10-16T01:16:33;14.70;99.90
14769;DHT22;7476;49.404;11.152;2022-10-16T01:19:09;14.70;99.90
14769;DHT22;7476;49.404;11.152;2022-10-16T01:21:41;14.60;99.90
14769;DHT22;7476;49.404;11.152;2022-10-16T01:24:15;14.60;99.90
14769;DHT22;7476;49.404;11.152;2022-10-16T01:29:49;14.60;99.90
14769;DHT22;7476;49.404;11.152;2022-10-16T01:32:21;14.70;99.90
14769;DHT22;7476;49.404;11.152;2022-10-16T01:34:51;14.70;99.90
14769;DHT22;7476;49.404;11.152;2022-10-16T01:37:26;14.70;99.90
14769;DHT22;7476;49.404;11.152;2022-10-16T01:39:58;14.70;99.90
14769;DHT22;7476;49.404;11.152;2022-10-16T01:42:30;14.70;99.90
14769;DHT22;7476;49.404;11.152;2022-10-16T01:44:59;14.70;99.90
14769;DHT22;7476;49.404;11.152;2022-10-16T01:47:27;14.60;99.90
14769;DHT22;7476;49.404;11.152;2022-10-16T01:49:58;14.60;99.90
14769;DHT22;7476;49.404;11.152;2022-10-16T01:52:28;14.70;99.90
14769;DHT22;7476;49.404;11.152;2022-10-16T01:54:56;14.70;99.90
14769;DHT22;7476;49.404;11.152;2022-10-16T01:57:24;14.70;99.90
14769;DHT22;7476;49.404;11.152;2022-10-16T01:59:54;14.70;99.90
14769;DHT22;7476;49.404;11.152;2022-10-16T02:02:27;14.70;99.90
14769;DHT22;7476;49.404;11.152;2022-10-16T02:04:57;14.70;99.90
14769;DHT22;7476;49.404;11.152;2022-10-16T02:07:25;14.80;99.90
14769;DHT22;7476;49.404;11.152;2022-10-16T02:09:51;14.80;99.90
14769;DHT22;7476;49.404;11.152;2022-10-16T02:12:25;14.80;99.90
14769;DHT22;7476;49.404;11.152;2022-10-16T02:14:52;14.80;99.90
14769;DHT22;7476;49.404;11.152;2022-10-16T02:17:19;14.80;99.90
14769;DHT22;7476;49.404;11.152;2022-10-16T02:19:49;14.80;99.90
14769;DHT22;7476;49.404;11.152;2022-10-16T02:22:22;14.80;99.90
14769;DHT22;7476;49.404;11.152;2022-10-16T02:24:54;14.80;99.90
14769;DHT22;7476;49.404;11.152;2022-10-16T02:27:26;14.80;99.90
14769;DHT22;7476;49.404;11.152;2022-10-16T02:29:56;14.80;99.90
14769;DHT22;7476;49.404;11.152;2022-10-16T02:32:28;14.80;99.90
14769;DHT22;7476;49.404;11.152;2022-10-16T02:34:58;14.80;99.90
14769;DHT22;7476;49.404;11.152;2022-10-16T02:37:26;14.80;99.90
14769;DHT22;7476;49.404;11.152;2022-10-16T02:39:55;14.80;99.90
14769;DHT22;7476;49.404;11.152;2022-10-16T02:42:27;14.80;99.90
14769;DHT22;7476;49.404;11.152;2022-10-16T02:44:54;14.80;99.90
14769;DHT22;7476;49.404;11.152;2022-10-16T02:47:21;14.70;99.90
14769;DHT22;7476;49.404;11.152;2022-10-16T02:49:48;14.70;99.90
14769;DHT22;7476;49.404;11.152;2022-10-16T02:52:16;14.70;99.90
14769;DHT22;7476;49.404;11.152;2022-10-16T02:54:42;14.70;99.90
14769;DHT22;7476;49.404;11.152;2022-10-16T02:57:09;14.70;99.90
14769;DHT22;7476;49.404;11.152;2022-10-16T02:59:36;14.70;99.90
14769;DHT22;7476;49.404;11.152;2022-10-16T03:02:02;14.70;99.90
14769;DHT22;7476;49.404;11.152;2022-10-16T03:04:29;14.70;99.90
14769;DHT22;7476;49.404;11.152;2022-10-16T03:06:56;14.70;99.90
14769;DHT22;7476;49.404;11.152;2022-10-16T03:09:24;14.70;99.90
14769;DHT22;7476;49.404;11.152;2022-10-16T03:11:50;14.70;99.90
14769;DHT22;7476;49.404;11.152;2022-10-16T03:14:17;14.70;99.90
14769;DHT22;7476;49.404;11.152;2022-10-16T03:16:44;14.60;99.90
14769;DHT22;7476;49.404;11.152;2022-10-16T03:19:11;14.60;99.90
14769;DHT22;7476;49.404;11.152;2022-10-16T03:21:37;14.60;99.90
14769;DHT22;7476;49.404;11.152;2022-10-16T03:24:05;14.60;99.90
14769;DHT22;7476;49.404;11.152;2022-10-16T03:26:33;14.60;99.90
14769;DHT22;7476;49.404;11.152;2022-10-16T03:28:59;14.60;99.90
14769;DHT22;7476;49.404;11.152;2022-10-16T03:31:27;14.60;99.90
14769;DHT22;7476;49.404;11.152;2022-10-16T03:33:54;14.60;99.90
14769;DHT22;7476;49.404;11.152;2022-10-16T03:36:21;14.60;99.90
14769;DHT22;7476;49.404;11.152;2022-10-16T03:38:48;14.70;99.90
14769;DHT22;7476;49.404;11.152;2022-10-16T03:41:14;14.70;99.90
14769;DHT22;7476;49.404;11.152;2022-10-16T03:43:42;14.70;99.90
14769;DHT22;7476;49.404;11.152;2022-10-16T03:46:09;14.70;99.90
14769;DHT22;7476;49.404;11.152;2022-10-16T03:48:36;14.70;99.90
14769;DHT22;7476;49.404;11.152;2022-10-16T03:51:02;14.70;99.90
14769;DHT22;7476;49.404;11.152;2022-10-16T03:53:29;14.60;99.90
14769;DHT22;7476;49.404;11.152;2022-10-16T03:55:56;14.70;99.90
14769;DHT22;7476;49.404;11.152;2022-10-16T03:58:23;14.70;99.90
14769;DHT22;7476;49.404;11.152;2022-10-16T04:00:51;14.70;99.90
14769;DHT22;7476;49.404;11.152;2022-10-16T04:03:18;14.70;99.90
14769;DHT22;7476;49.404;11.152;2022-10-16T04:05:45;14.70;99.90
14769;DHT22;7476;49.404;11.152;2022-10-16T04:08:11;14.70;99.90
14769;DHT22;7476;49.404;11.152;2022-10-16T04:10:38;14.70;99.90
14769;DHT22;7476;49.404;11.152;2022-10-16T04:13:05;14.70;99.90
14769;DHT22;7476;49.404;11.152;2022-10-16T04:15:31;14.80;99.90
14769;DHT22;7476;49.404;11.152;2022-10-16T04:17:59;14.80;99.90
14769;DHT22;7476;49.404;11.152;2022-10-16T04:20:26;14.80;99.90
14769;DHT22;7476;49.404;11.152;2022-10-16T04:22:53;14.80;99.90
14769;DHT22;7476;49.404;11.152;2022-10-16T04:25:19;14.80;99.90
14769;DHT22;7476;49.404;11.152;2022-10-16T04:27:46;14.80;99.90
14769;DHT22;7476;49.404;11.152;2022-10-16T04:30:13;14.80;99.90
14769;DHT22;7476;49.404;11.152;2022-10-16T04:32:40;14.80;99.90
14769;DHT22;7476;49.404;11.152;2022-10-16T04:35:08;14.80;99.90
14769;DHT22;7476;49.404;11.152;2022-10-16T04:37:35;14.80;99.90
14769;DHT22;7476;49.404;11.152;2022-10-16T04:40:02;14.70;99.90
14769;DHT22;7476;49.404;11.152;2022-10-16T04:42:29;14.70;99.90
14769;DHT22;7476;49.404;11.152;2022-10-16T04:44:56;14.70;99.90
14769;DHT22;7476;49.404;11.152;2022-10-16T04:47:22;14.70;99.90
14769;DHT22;7476;49.404;11.152;2022-10-16T04:49:49;14.70;99.90
14769;DHT22;7476;49.404;11.152;2022-10-16T04:52:17;14.70;99.90
14769;DHT22;7476;49.404;11.152;2022-10-16T04:54:44;14.70;99.90
14769;DHT22;7476;49.404;11.152;2022-10-16T04:57:11;14.70;99.90
14769;DHT22;7476;49.404;11.152;2022-10-16T04:59:38;14.70;99.90
14769;DHT22;7476;49.404;11.152;2022-10-16T05:02:04;14.70;99.90
14769;DHT22;7476;49.404;11.152;2022-10-16T05:04:31;14.70;99.90
14769;DHT22;7476;49.404;11.152;2022-10-16T05:06:58;14.70;99.90
14769;DHT22;7476;49.404;11.152;2022-10-16T05:09:26;14.60;99.90
14769;DHT22;7476;49.404;11.152;2022-10-16T05:11:53;14.60;99.90
14769;DHT22;7476;49.404;11.152;2022-10-16T05:14:19;14.60;99.90
14769;DHT22;7476;49.404;11.152;2022-10-16T05:16:46;14.60;99.90
14769;DHT22;7476;49.404;11.152;2022-10-16T05:19:13;14.50;99.90
14769;DHT22;7476;49.404;11.152;2022-10-16T05:21:40;14.50;99.90
14769;DHT22;7476;49.404;11.152;2022-10-16T05:24:07;14.50;99.90
14769;DHT22;7476;49.404;11.152;2022-10-16T05:26:35;14.40;99.90
14769;DHT22;7476;49.404;11.152;2022-10-16T05:29:02;14.40;99.90
14769;DHT22;7476;49.404;11.152;2022-10-16T05:31:29;14.40;99.90
14769;DHT22;7476;49.404;11.152;2022-10-16T05:33:58;14.40;99.90
14769;DHT22;7476;49.404;11.152;2022-10-16T05:36:25;14.30;99.90
14769;DHT22;7476;49.404;11.152;2022-10-16T05:38:51;14.30;99.90
14769;DHT22;7476;49.404;11.152;2022-10-16T05:41:19;14.40;99.90
14769;DHT22;7476;49.404;11.152;2022-10-16T05:43:48;14.40;99.90
14769;DHT22;7476;49.404;11.152;2022-10-16T05:46:15;14.50;99.90
14769;DHT22;7476;49.404;11.152;2022-10-16T05:48:43;14.50;99.90
14769;DHT22;7476;49.404;11.152;2022-10-16T05:51:12;14.50;99.90
14769;DHT22;7476;49.404;11.152;2022-10-16T05:53:40;14.60;99.90
14769;DHT22;7476;49.404;11.152;2022-10-16T05:56:09;14.60;99.90
14769;DHT22;7476;49.404;11.152;2022-10-16T05:58:38;14.60;99.90
14769;DHT22;7476;49.404;11.152;2022-10-16T06:01:09;14.70;99.90
14769;DHT22;7476;49.404;11.152;2022-10-16T06:08:04;14.70;99.90
14769;DHT22;7476;49.404;11.152;2022-10-16T06:10:30;14.70;99.90
14769;DHT22;7476;49.404;11.152;2022-10-16T06:12:57;14.80;99.90
14769;DHT22;7476;49.404;11.152;2022-10-16T06:15:24;14.80;99.90
14769;DHT22;7476;49.404;11.152;2022-10-16T06:17:51;14.80;99.90
14769;DHT22;7476;49.404;11.152;2022-10-16T06:20:17;14.90;99.90
14769;DHT22;7476;49.404;11.152;2022-10-16T06:22:44;14.90;99.90
14769;DHT22;7476;49.404;11.152;2022-10-16T06:25:12;15.00;99.90
14769;DHT22;7476;49.404;11.152;2022-10-16T06:27:39;15.00;99.90
14769;DHT22;7476;49.404;11.152;2022-10-16T06:30:07;15.10;99.90
14769;DHT22;7476;49.404;11.152;2022-10-16T06:32:34;15.20;99.90
14769;DHT22;7476;49.404;11.152;2022-10-16T06:35:01;15.30;99.90
14769;DHT22;7476;49.404;11.152;2022-10-16T06:37:27;15.50;99.90
14769;DHT22;7476;49.404;11.152;2022-10-16T06:39:54;15.50;99.90
14769;DHT22;7476;49.404;11.152;2022-10-16T06:42:22;15.50;99.90
14769;DHT22;7476;49.404;11.152;2022-10-16T06:44:49;15.50;99.90
14769;DHT22;7476;49.404;11.152;2022-10-16T06:47:15;15.60;99.90
14769;DHT22;7476;49.404;11.152;2022-10-16T06:49:42;15.70;99.90
14769;DHT22;7476;49.404;11.152;2022-10-16T06:52:09;15.90;99.90
14769;DHT22;7476;49.404;11.152;2022-10-16T06:54:36;16.40;99.90
14769;DHT22;7476;49.404;11.152;2022-10-16T06:57:02;16.80;99.90
14769;DHT22;7476;49.404;11.152;2022-10-16T06:59:30;17.20;99.90
14769;DHT22;7476;49.404;11.152;2022-10-16T07:01:57;17.30;99.90
14769;DHT22;7476;49.404;11.152;2022-10-16T07:04:24;17.20;99.90
14769;DHT22;7476;49.404;11.152;2022-10-16T07:06:50;17.00;99.90
14769;DHT22;7476;49.404;11.152;2022-10-16T07:09:17;16.80;99.90
14769;DHT22;7476;49.404;11.152;2022-10-16T07:11:44;16.60;99.90
14769;DHT22;7476;49.404;11.152;2022-10-16T07:14:15;16.60;99.90
14769;DHT22;7476;49.404;11.152;2022-10-16T07:16:43;16.50;99.90
14769;DHT22;7476;49.404;11.152;2022-10-16T07:19:10;16.50;99.90
14769;DHT22;7476;49.404;11.152;2022-10-16T07:21:40;16.50;99.90
14769;DHT22;7476;49.404;11.152;2022-10-16T07:24:10;16.50;99.90
14769;DHT22;7476;49.404;11.152;2022-10-16T07:26:38;16.50;99.90
14769;DHT22;7476;49.404;11.152;2022-10-16T07:29:06;16.40;99.90
14769;DHT22;7476;49.404;11.152;2022-10-16T07:31:33;16.50;99.90
14769;DHT22;7476;49.404;11.152;2022-10-16T07:34:01;16.50;99.90
14769;DHT22;7476;49.404;11.152;2022-10-16T07:36:28;16.50;99.90
14769;DHT22;7476;49.404;11.152;2022-10-16T07:38:55;16.40;99.90
14769;DHT22;7476;49.404;11.152;2022-10-16T07:41:22;16.40;99.90
14769;DHT22;7476;49.404;11.152;2022-10-16T07:43:50;16.40;99.90
14769;DHT22;7476;49.404;11.152;2022-10-16T07:46:17;16.50;99.90
14769;DHT22;7476;49.404;11.152;2022-10-16T07:48:44;16.50;99.90
14769;DHT22;7476;49.404;11.152;2022-10-16T07:51:14;16.50;99.90
14769;DHT22;7476;49.404;11.152;2022-10-16T07:53:41;16.60;99.90
14769;DHT22;7476;49.404;11.152;2022-10-16T07:56:09;16.60;99.90
14769;DHT22;7476;49.404;11.152;2022-10-16T07:58:37;16.60;99.90
14769;DHT22;7476;49.404;11.152;2022-10-16T08:01:05;16.60;99.90
14769;DHT22;7476;49.404;11.152;2022-10-16T08:03:32;16.70;99.90
14769;DHT22;7476;49.404;11.152;2022-10-16T08:06:00;16.70;99.90
14769;DHT22;7476;49.404;11.152;2022-10-16T08:08:28;16.70;99.90
14769;DHT22;7476;49.404;11.152;2022-10-16T08:10:55;16.90;99.90
14769;DHT22;7476;49.404;11.152;2022-10-16T08:13:22;16.90;99.90
14769;DHT22;7476;49.404;11.152;2022-10-16T08:15:49;17.10;99.90
14769;DHT22;7476;49.404;11.152;2022-10-16T08:18:16;17.30;99.90
14769;DHT22;7476;49.404;11.152;2022-10-16T08:20:43;17.40;99.90
14769;DHT22;7476;49.404;11.152;2022-10-16T08:23:10;17.70;99.90
14769;DHT22;7476;49.404;11.152;2022-10-16T08:25:39;17.70;99.90
14769;DHT22;7476;49.404;11.152;2022-10-16T08:28:07;17.70;99.90
14769;DHT22;7476;49.404;11.152;2022-10-16T08:30:34;17.60;99.90
14769;DHT22;7476;49.404;11.152;2022-10-16T08:33:02;17.80;99.90
14769;DHT22;7476;49.404;11.152;2022-10-16T08:35:29;18.10;99.90
14769;DHT22;7476;49.404;11.152;2022-10-16T08:37:55;18.40;99.90
14769;DHT22;7476;49.404;11.152;2022-10-16T08:40:24;18.80;99.90
14769;DHT22;7476;49.404;11.152;2022-10-16T08:43:11;19.00;99.90
14769;DHT22;7476;49.404;11.152;2022-10-16T08:45:58;19.50;99.90
14769;DHT22;7476;49.404;11.152;2022-10-16T08:48:35;20.00;99.90
14769;DHT22;7476;49.404;11.152;2022-10-16T08:51:08;20.60;99.90
14769;DHT22;7476;49.404;11.152;2022-10-16T08:53:39;20.40;99.90
14769;DHT22;7476;49.404;11.152;2022-10-16T08:56:09;20.30;99.90
14769;DHT22;7476;49.404;11.152;2022-10-16T08:58:37;20.30;99.90
14769;DHT22;7476;49.404;11.152;2022-10-16T09:01:12;20.40;99.90
14769;DHT22;7476;49.404;11.152;2022-10-16T09:04:07;20.40;99.90
14769;DHT22;7476;49.404;11.152;2022-10-16T09:06:45;20.30;99.90
14769;DHT22;7476;49.404;11.152;2022-10-16T09:12:13;20.40;99.90
14769;DHT22;7476;49.404;11.152;2022-10-16T09:14:53;20.90;99.90
14769;DHT22;7476;49.404;11.152;2022-10-16T09:17:32;20.90;99.90
14769;DHT22;7476;49.404;11.152;2022-10-16T09:20:12;21.10;99.90
14769;DHT22;7476;49.404;11.152;2022-10-16T09:22:40;20.90;99.90
14769;DHT22;7476;49.404;11.152;2022-10-16T09:25:12;21.10;99.90
14769;DHT22;7476;49.404;11.152;2022-10-16T09:27:39;21.10;99.90
14769;DHT22;7476;49.404;11.152;2022-10-16T09:30:13;20.90;99.90
14769;DHT22;7476;49.404;11.152;2022-10-16T09:32:40;20.80;99.90
14769;DHT22;7476;49.404;11.152;2022-10-16T09:35:13;20.80;99.90
14769;DHT22;7476;49.404;11.152;2022-10-16T09:37:41;20.80;99.90
14769;DHT22;7476;49.404;11.152;2022-10-16T09:40:13;20.70;99.90
14769;DHT22;7476;49.404;11.152;2022-10-16T09:42:40;20.40;99.90
14769;DHT22;7476;49.404;11.152;2022-10-16T09:45:21;20.00;99.90
14769;DHT22;7476;49.404;11.152;2022-10-16T09:47:49;19.80;99.90
14769;DHT22;7476;49.404;11.152;2022-10-16T09:50:22;19.40;99.90
14769;DHT22;7476;49.404;11.152;2022-10-16T09:52:50;19.20;99.90
14769;DHT22;7476;49.404;11.152;2022-10-16T09:55:18;18.90;99.90
14769;DHT22;7476;49.404;11.152;2022-10-16T09:57:50;18.80;99.90
14769;DHT22;7476;49.404;11.152;2022-10-16T10:00:18;18.70;99.90
14769;DHT22;7476;49.404;11.152;2022-10-16T10:02:46;18.70;99.90
14769;DHT22;7476;49.404;11.152;2022-10-16T10:05:21;18.80;99.90
14769;DHT22;7476;49.404;11.152;2022-10-16T10:07:55;19.20;99.90
14769;DHT22;7476;49.404;11.152;2022-10-16T10:10:25;19.60;99.90
14769;DHT22;7476;49.404;11.152;2022-10-16T10:12:53;20.30;99.90
14769;DHT22;7476;49.404;11.152;2022-10-16T10:15:21;20.60;99.90
14769;DHT22;7476;49.404;11.152;2022-10-16T10:17:51;21.20;99.90
14769;DHT22;7476;49.404;11.152;2022-10-16T10:20:23;21.70;99.90
14769;DHT22;7476;49.404;11.152;2022-10-16T10:22:51;22.10;99.90
14769;DHT22;7476;49.404;11.152;2022-10-16T10:25:40;22.80;99.90
14769;DHT22;7476;49.404;11.152;2022-10-16T10:28:39;22.90;99.90
14769;DHT22;7476;49.404;11.152;2022-10-16T10:31:13;22.80;99.90
14769;DHT22;7476;49.404;11.152;2022-10-16T10:33:46;22.40;99.90
14769;DHT22;7476;49.404;11.152;2022-10-16T10:36:22;22.40;99.90
14769;DHT22;7476;49.404;11.152;2022-10-16T10:38:56;22.40;99.90
14769;DHT22;7476;49.404;11.152;2022-10-16T10:41:52;22.50;99.90
14769;DHT22;7476;49.404;11.152;2022-10-16T10:44:30;22.60;99.90
14769;DHT22;7476;49.404;11.152;2022-10-16T10:47:06;22.50;99.90
14769;DHT22;7476;49.404;11.152;2022-10-16T10:49:51;22.60;99.90
14769;DHT22;7476;49.404;11.152;2022-10-16T10:55:24;23.80;99.90
14769;DHT22;7476;49.404;11.152;2022-10-16T10:58:10;24.00;99.90
14769;DHT22;7476;49.404;11.152;2022-10-16T11:00:46;23.60;99.90
14769;DHT22;7476;49.404;11.152;2022-10-16T11:03:29;23.70;99.90
14769;DHT22;7476;49.404;11.152;2022-10-16T11:06:00;23.50;99.90
14769;DHT22;7476;49.404;11.152;2022-10-16T11:08:35;23.20;99.90
14769;DHT22;7476;49.404;11.152;2022-10-16T11:11:04;22.90;99.90
14769;DHT22;7476;49.404;11.152;2022-10-16T11:13:35;22.70;99.90
14769;DHT22;7476;49.404;11.152;2022-10-16T11:16:13;22.50;99.90
14769;DHT22;7476;49.404;11.152;2022-10-16T11:18:47;22.50;99.90
14769;DHT22;7476;49.404;11.152;2022-10-16T11:21:18;22.60;99.90
14769;DHT22;7476;49.404;11.152;2022-10-16T11:23:51;22.60;99.90
14769;DHT22;7476;49.404;11.152;2022-10-16T11:26:23;22.70;99.90
14769;DHT22;7476;49.404;11.152;2022-10-16T11:28:51;22.60;99.90
14769;DHT22;7476;49.404;11.152;2022-10-16T11:31:28;22.70;99.90
14769;DHT22;7476;49.404;11.152;2022-10-16T11:34:02;22.80;99.90
14769;DHT22;7476;49.404;11.152;2022-10-16T11:36:38;22.80;99.90
14769;DHT22;7476;49.404;11.152;2022-10-16T11:39:19;22.70;99.90
14769;DHT22;7476;49.404;11.152;2022-10-16T11:41:49;22.70;99.90
14769;DHT22;7476;49.404;11.152;2022-10-16T11:44:44;22.90;99.90
14769;DHT22;7476;49.404;11.152;2022-10-16T11:47:23;23.60;99.90
14769;DHT22;7476;49.404;11.152;2022-10-16T11:49:53;23.80;99.90
14769;DHT22;7476;49.404;11.152;2022-10-16T11:52:28;24.00;99.90
14769;DHT22;7476;49.404;11.152;2022-10-16T11:55:01;24.10;99.90
14769;DHT22;7476;49.404;11.152;2022-10-16T11:57:34;24.40;99.90
14769;DHT22;7476;49.404;11.152;2022-10-16T12:00:08;26.10;99.90
14769;DHT22;7476;49.404;11.152;2022-10-16T12:02:44;27.80;99.90
14769;DHT22;7476;49.404;11.152;2022-10-16T12:05:23;27.90;99.90
14769;DHT22;7476;49.404;11.152;2022-10-16T12:08:01;27.00;99.90
14769;DHT22;7476;49.404;11.152;2022-10-16T12:10:30;25.90;99.90
14769;DHT22;7476;49.404;11.152;2022-10-16T12:13:03;25.90;99.90
14769;DHT22;7476;49.404;11.152;2022-10-16T12:15:31;27.00;99.90
14769;DHT22;7476;49.404;11.152;2022-10-16T12:17:58;27.40;99.90
14769;DHT22;7476;49.404;11.152;2022-10-16T12:20:28;27.10;99.90
14769;DHT22;7476;49.404;11.152;2022-10-16T12:22:59;26.60;99.90
14769;DHT22;7476;49.404;11.152;2022-10-16T12:25:28;26.80;99.90
14769;DHT22;7476;49.404;11.152;2022-10-16T12:28:03;27.50;99.90
14769;DHT22;7476;49.404;11.152;2022-10-16T12:30:33;27.10;99.90
14769;DHT22;7476;49.404;11.152;2022-10-16T12:33:02;27.50;99.90
14769;DHT22;7476;49.404;11.152;2022-10-16T12:35:32;28.30;99.90
14769;DHT22;7476;49.404;11.152;2022-10-16T12:38:16;28.80;99.90
14769;DHT22;7476;49.404;11.152;2022-10-16T12:40:44;28.40;99.90
14769;DHT22;7476;49.404;11.152;2022-10-16T12:43:25;28.10;99.90
14769;DHT22;7476;49.404;11.152;2022-10-16T12:46:04;27.00;99.90
14769;DHT22;7476;49.404;11.152;2022-10-16T12:48:32;26.70;99.90
14769;DHT22;7476;49.404;11.152;2022-10-16T12:51:10;26.50;99.90
14769;DHT22;7476;49.404;11.152;2022-10-16T12:53:38;26.00;99.90
14769;DHT22;7476;49.404;11.152;2022-10-16T12:56:16;26.10;99.90
14769;DHT22;7476;49.404;11.152;2022-10-16T12:59:00;27.00;99.90
14769;DHT22;7476;49.404;11.152;2022-10-16T13:01:39;27.80;99.90
14769;DHT22;7476;49.404;11.152;2022-10-16T13:04:25;28.10;99.90
14769;DHT22;7476;49.404;11.152;2022-10-16T13:07:00;27.80;99.90
14769;DHT22;7476;49.404;11.152;2022-10-16T13:09:42;27.30;99.90
14769;DHT22;7476;49.404;11.152;2022-10-16T13:12:38;27.10;99.90
14769;DHT22;7476;49.404;11.152;2022-10-16T13:15:20;27.50;99.90
14769;DHT22;7476;49.404;11.152;2022-10-16T13:17:54;28.90;99.90
14769;DHT22;7476;49.404;11.152;2022-10-16T13:20:29;29.70;99.90
14769;DHT22;7476;49.404;11.152;2022-10-16T13:23:05;29.00;99.90
14769;DHT22;7476;49.404;11.152;2022-10-16T13:25:44;28.70;99.90
14769;DHT22;7476;49.404;11.152;2022-10-16T13:28:21;28.90;99.90
14769;DHT22;7476;49.404;11.152;2022-10-16T13:30:52;28.80;99.90
14769;DHT22;7476;49.404;11.152;2022-10-16T13:33:25;29.20;99.90
14769;DHT22;7476;49.404;11.152;2022-10-16T13:35:55;29.00;99.90
14769;DHT22;7476;49.404;11.152;2022-10-16T13:38:23;28.00;99.90
14769;DHT22;7476;49.404;11.152;2022-10-16T13:40:54;27.90;99.90
14769;DHT22;7476;49.404;11.152;2022-10-16T13:43:24;27.70;99.90
14769;DHT22;7476;49.404;11.152;2022-10-16T13:46:00;29.30;99.90
14769;DHT22;7476;49.404;11.152;2022-10-16T13:48:27;31.20;99.90
14769;DHT22;7476;49.404;11.152;2022-10-16T13:51:05;31.90;99.80
14769;DHT22;7476;49.404;11.152;2022-10-16T13:53:33;31.70;99.20
14769;DHT22;7476;49.404;11.152;2022-10-16T13:56:04;31.60;99.60
14769;DHT22;7476;49.404;11.152;2022-10-16T13:58:32;31.90;99.20
14769;DHT22;7476;49.404;11.152;2022-10-16T14:01:00;32.50;98.10
14769;DHT22;7476;49.404;11.152;2022-10-16T14:03:28;32.00;98.40
14769;DHT22;7476;49.404;11.152;2022-10-16T14:05:57;32.00;97.40
14769;DHT22;7476;49.404;11.152;2022-10-16T14:08:25;31.80;97.10
14769;DHT22;7476;49.404;11.152;2022-10-16T14:10:55;31.50;98.00
14769;DHT22;7476;49.404;11.152;2022-10-16T14:13:30;31.30;98.20
14769;DHT22;7476;49.404;11.152;2022-10-16T14:15:58;31.40;97.90
14769;DHT22;7476;49.404;11.152;2022-10-16T14:18:27;31.30;97.20
14769;DHT22;7476;49.404;11.152;2022-10-16T14:20:54;30.90;97.30
14769;DHT22;7476;49.404;11.152;2022-10-16T14:23:30;31.00;98.50
14769;DHT22;7476;49.404;11.152;2022-10-16T14:26:06;30.30;97.50
14769;DHT22;7476;49.404;11.152;2022-10-16T14:28:41;30.10;98.40
14769;DHT22;7476;49.404;11.152;2022-10-16T14:31:25;29.80;99.10
14769;DHT22;7476;49.404;11.152;2022-10-16T14:33:52;29.60;98.80
14769;DHT22;7476;49.404;11.152;2022-10-16T14:36:19;30.20;97.30
14769;DHT22;7476;49.404;11.152;2022-10-16T14:38:49;30.60;97.60
14769;DHT22;7476;49.404;11.152;2022-10-16T14:41:20;30.80;96.50
14769;DHT22;7476;49.404;11.152;2022-10-16T14:43:51;30.10;97.60
14769;DHT22;7476;49.404;11.152;2022-10-16T14:46:21;30.00;98.80
14769;DHT22;7476;49.404;11.152;2022-10-16T14:48:54;29.00;99.90
14769;DHT22;7476;49.404;11.152;2022-10-16T14:51:22;29.40;99.40
14769;DHT22;7476;49.404;11.152;2022-10-16T14:53:49;28.60;99.40
14769;DHT22;7476;49.404;11.152;2022-10-16T14:56:19;27.20;99.90
14769;DHT22;7476;49.404;11.152;2022-10-16T14:58:46;26.10;99.90
14769;DHT22;7476;49.404;11.152;2022-10-16T15:01:14;25.90;99.90
14769;DHT22;7476;49.404;11.152;2022-10-16T15:03:41;27.20;99.90
14769;DHT22;7476;49.404;11.152;2022-10-16T15:06:10;27.90;99.90
14769;DHT22;7476;49.404;11.152;2022-10-16T15:08:37;27.30;99.90
14769;DHT22;7476;49.404;11.152;2022-10-16T15:11:04;26.40;99.90
14769;DHT22;7476;49.404;11.152;2022-10-16T15:13:32;25.50;99.90
14769;DHT22;7476;49.404;11.152;2022-10-16T15:15:58;24.40;99.90
14769;DHT22;7476;49.404;11.152;2022-10-16T15:18:26;23.50;99.90
14769;DHT22;7476;49.404;11.152;2022-10-16T15:20:53;23.00;99.90
14769;DHT22;7476;49.404;11.152;2022-10-16T15:23:22;22.50;99.90
14769;DHT22;7476;49.404;11.152;2022-10-16T15:25:50;22.00;99.90
14769;DHT22;7476;49.404;11.152;2022-10-16T15:28:17;21.60;99.90
14769;DHT22;7476;49.404;11.152;2022-10-16T15:30:45;21.30;99.90
14769;DHT22;7476;49.404;11.152;2022-10-16T15:33:14;20.90;99.90
14769;DHT22;7476;49.404;11.152;2022-10-16T15:35:46;20.60;99.90
14769;DHT22;7476;49.404;11.152;2022-10-16T15:38:13;20.30;99.90
14769;DHT22;7476;49.404;11.152;2022-10-16T15:40:41;20.00;99.90
14769;DHT22;7476;49.404;11.152;2022-10-16T15:43:08;19.70;99.90
14769;DHT22;7476;49.404;11.152;2022-10-16T15:45:35;19.60;99.90
14769;DHT22;7476;49.404;11.152;2022-10-16T15:48:02;19.40;99.90
14769;DHT22;7476;49.404;11.152;2022-10-16T15:50:30;19.20;99.90
14769;DHT22;7476;49.404;11.152;2022-10-16T15:52:58;19.10;99.90
14769;DHT22;7476;49.404;11.152;2022-10-16T15:55:25;18.90;99.90
14769;DHT22;7476;49.404;11.152;2022-10-16T15:57:52;18.80;99.90
14769;DHT22;7476;49.404;11.152;2022-10-16T16:00:19;18.80;99.90
14769;DHT22;7476;49.404;11.152;2022-10-16T16:02:51;18.70;99.90
14769;DHT22;7476;49.404;11.152;2022-10-16T16:05:19;18.60;99.90